Time;durP1;ratioP1;P1;durP2;ratioP2;P2;SDS_P1;SDS_P2;PMS_P1;PMS_P2;Temp;Humidity;BMP_temperature;BMP_pressure;BME280_temperature;BME280_humidity;BME280_pressure;Samples;Min_cycle;Max_cycle;Signal;HPM_P1;HPM_P2
2023/12/08 00:05:32;;;;;;;77.10;44.40;;;;;;;-2.24;100.00;99854.61;436918;1257;140936;-70
2023/12/08 00:15:38;;;;;;;77.70;42.10;;;;;;;-2.28;100.00;99856.18;437398;1255;139866;-67
2023/12/08 00:25:44;;;;;;;70.30;40.30;;;;;;;-2.33;100.00;99859.46;432836;1256;140146;-71
2023/12/08 00:35:51;;;;;;;78.50;42.60;;;;;;;-2.33;100.00;99863.76;438540;1259;140863;-66
2023/12/08 00:45:58;;;;;;;78.30;45.90;;;;;;;-2.36;100.00;99868.41;438403;1257;140012;-67
2023/12/08 00:56:04;;;;;;;79.00;43.40;;;;;;;-2.39;100.00;99869.29;433105;1255;140614;-70
2023/12/08 01:06:12;;;;;;;84.90;47.80;;;;;;;-2.42;100.00;99878.21;435138;1259;170838;-69
2023/12/08 01:16:19;;;;;;;86.20;49.30;;;;;;;-2.43;100.00;99881.83;437374;1257;141022;-63
2023/12/08 01:26:25;;;;;;;81.50;49.60;;;;;;;-2.39;100.00;99874.60;443941;1259;140244;-62
2023/12/08 01:36:32;;;;;;;96.00;48.70;;;;;;;-2.35;100.00;99872.02;434194;1258;140254;-63
2023/12/08 01:46:50;;;;;;;91.50;47.50;;;;;;;-2.35;100.00;99868.58;433554;1258;140399;-63
2023/12/08 01:56:56;;;;;;;91.10;48.50;;;;;;;-2.34;100.00;99874.58;433212;1259;140225;-63
2023/12/08 02:07:03;;;;;;;102.30;51.70;;;;;;;-2.33;100.00;99876.78;432710;1255;141519;-63
2023/12/08 02:17:14;;;;;;;97.30;51.10;;;;;;;-2.33;100.00;99876.96;435006;1260;140094;-64
2023/12/08 02:27:21;;;;;;;90.50;46.20;;;;;;;-2.38;100.00;99883.16;433504;1258;140338;-63
2023/12/08 02:37:31;;;;;;;101.90;51.40;;;;;;;-2.38;100.00;99873.23;432258;1258;141644;-64
2023/12/08 02:47:37;;;;;;;96.70;49.50;;;;;;;-2.42;100.00;99877.36;432341;1260;140805;-64
2023/12/08 02:57:44;;;;;;;97.90;51.10;;;;;;;-2.42;100.00;99866.23;432809;1259;140096;-64
2023/12/08 03:07:48;;;;;;;;;;;;;;;-2.43;100.00;99862.80;432680;1258;141390;-63
2023/12/08 03:17:54;;;;;;;96.30;48.40;;;;;;;-2.43;100.00;99862.79;433349;1259;126348;-63
2023/12/08 03:28:01;;;;;;;93.40;46.30;;;;;;;-2.44;100.00;99855.43;433281;1256;140120;-64
2023/12/08 03:38:08;;;;;;;94.20;47.70;;;;;;;-2.48;100.00;99850.48;435359;1259;141183;-63
2023/12/08 03:48:14;;;;;;;100.70;49.30;;;;;;;-2.51;100.00;99845.02;433815;1258;140086;-64
2023/12/08 03:58:20;;;;;;;78.50;42.40;;;;;;;-2.54;100.00;99838.33;433843;1260;141482;-62
2023/12/08 04:08:27;;;;;;;86.60;46.40;;;;;;;-2.58;100.00;99825.86;433087;1259;141395;-63
2023/12/08 04:18:33;;;;;;;78.20;41.50;;;;;;;-2.61;100.00;99820.05;432707;1257;141427;-64
2023/12/08 04:28:40;;;;;;;91.70;45.40;;;;;;;-2.61;100.00;99809.08;434269;1260;140244;-64
2023/12/08 04:38:47;;;;;;;78.00;39.30;;;;;;;-2.63;100.00;99805.33;432796;1258;140498;-62
2023/12/08 04:48:53;;;;;;;87.60;46.80;;;;;;;-2.63;100.00;99812.87;434494;1258;140103;-63
2023/12/08 04:59:00;;;;;;;90.80;43.10;;;;;;;-2.65;100.00;99807.39;434721;1258;140637;-63
2023/12/08 05:09:06;;;;;;;75.10;39.70;;;;;;;-2.69;100.00;99809.98;436347;1256;141821;-63
2023/12/08 05:19:12;;;;;;;70.00;37.50;;;;;;;-2.73;100.00;99804.36;433732;1260;140897;-63
2023/12/08 05:29:19;;;;;;;79.70;40.30;;;;;;;-2.78;100.00;99805.08;433275;1260;140309;-62
2023/12/08 05:39:25;;;;;;;85.70;42.20;;;;;;;-2.83;100.00;99789.33;435612;1255;140208;-63
2023/12/08 05:49:31;;;;;;;72.50;38.30;;;;;;;-2.82;100.00;99783.85;434202;1258;141507;-63
2023/12/08 05:59:38;;;;;;;78.80;41.00;;;;;;;-2.80;100.00;99788.98;436599;1259;140347;-63
2023/12/08 06:09:44;;;;;;;81.30;40.10;;;;;;;-2.82;100.00;99797.20;432779;1258;140662;-63
2023/12/08 06:19:50;;;;;;;82.30;36.60;;;;;;;-2.84;100.00;99795.33;432749;1259;140363;-63
2023/12/08 06:29:54;;;;;;;;;;;;;;;-2.87;100.00;99800.84;432283;1256;141634;-65
2023/12/08 06:40:01;;;;;;;88.20;40.40;;;;;;;-2.88;100.00;99800.85;432499;1260;126408;-64
2023/12/08 06:50:10;;;;;;;89.00;43.50;;;;;;;-2.91;100.00;99814.56;433004;1260;141619;-63
2023/12/08 07:00:18;;;;;;;76.90;39.90;;;;;;;-2.92;100.00;99820.91;432682;1260;140472;-63
2023/12/08 07:10:24;;;;;;;84.70;42.60;;;;;;;-2.90;100.00;99821.92;434568;1260;144115;-64
2023/12/08 07:20:30;;;;;;;90.90;42.40;;;;;;;-2.85;100.00;99821.21;432701;1260;141972;-64
2023/12/08 07:30:37;;;;;;;92.00;42.60;;;;;;;-2.81;100.00;99825.48;436299;1260;140053;-64
2023/12/08 07:40:44;;;;;;;97.20;46.60;;;;;;;-2.76;100.00;99815.52;432579;1260;140233;-69
2023/12/08 07:50:50;;;;;;;100.20;48.00;;;;;;;-2.75;100.00;99812.59;433569;1260;140094;-69
2023/12/08 08:00:57;;;;;;;101.50;49.20;;;;;;;-2.71;100.00;99813.77;432533;1259;140684;-63
2023/12/08 08:11:04;;;;;;;101.30;49.70;;;;;;;-2.66;100.00;99809.11;440081;1260;140272;-65
2023/12/08 08:21:11;;;;;;;98.20;47.30;;;;;;;-2.57;100.00;99806.14;438086;1256;140411;-68
2023/12/08 08:31:20;;;;;;;112.70;50.90;;;;;;;-2.48;100.00;99821.67;432468;1260;140929;-66
2023/12/08 08:41:26;;;;;;;97.10;47.60;;;;;;;-2.44;100.00;99799.88;437306;1259;140202;-67
2023/12/08 08:51:33;;;;;;;101.20;51.40;;;;;;;-2.34;100.00;99804.61;440734;1257;139816;-70
2023/12/08 09:01:40;;;;;;;98.90;48.40;;;;;;;-2.26;100.00;99810.36;434921;1260;141724;-69
2023/12/08 09:11:46;;;;;;;115.90;50.00;;;;;;;-2.18;100.00;99795.55;436984;1254;141038;-69
2023/12/08 09:21:51;;;;;;;;;;;;;;;-2.15;100.00;99780.09;433061;1257;140580;-69
2023/12/08 09:31:59;;;;;;;106.00;53.60;;;;;;;-2.06;100.00;99760.46;432923;1259;126163;-64
2023/12/08 09:42:07;;;;;;;;;;;;;;;-1.97;100.00;99762.25;433149;1257;140652;-69
2023/12/08 09:52:16;;;;;;;111.90;53.90;;;;;;;-1.90;100.00;99743.15;439379;1257;126257;-70
2023/12/08 10:02:22;;;;;;;113.90;56.00;;;;;;;-1.85;100.00;99742.42;437440;1255;140982;-73
2023/12/08 10:12:29;;;;;;;114.90;54.10;;;;;;;-1.74;100.00;99731.65;439786;1257;139750;-78
2023/12/08 10:22:45;;;;;;;104.90;51.40;;;;;;;-1.62;100.00;99722.42;439552;1254;140969;-74
2023/12/08 10:32:53;;;;;;;87.90;45.90;;;;;;;-1.58;100.00;99727.52;438631;1259;140399;-67
2023/12/08 10:43:00;;;;;;;106.90;50.20;;;;;;;-1.56;100.00;99733.16;436659;1254;140320;-67
2023/12/08 10:53:07;;;;;;;107.70;50.60;;;;;;;-1.53;100.00;99723.17;436553;1257;141247;-66
2023/12/08 11:03:19;;;;;;;116.70;55.00;;;;;;;-1.48;100.00;99717.96;444201;1254;140186;-72
2023/12/08 11:13:28;;;;;;;86.00;44.10;;;;;;;-1.44;100.00;99714.47;436453;1257;140132;-73
2023/12/08 11:23:36;;;;;;;85.30;44.50;;;;;;;-1.46;100.00;99707.63;438517;1259;140887;-72
2023/12/08 11:33:51;;;;;;;84.40;45.10;;;;;;;-1.42;100.00;99700.70;438705;1255;139959;-70
2023/12/08 11:44:03;;;;;;;95.50;50.70;;;;;;;-1.37;100.00;99695.15;438677;1259;141002;-68
2023/12/08 11:54:09;;;;;;;81.60;45.40;;;;;;;-1.35;100.00;99676.58;438216;1260;140023;-68
2023/12/08 12:04:15;;;;;;;84.60;47.10;;;;;;;-1.36;100.00;99676.77;438469;1257;141101;-73
2023/12/08 12:14:21;;;;;;;;;;;;;;;-1.46;100.00;99679.98;438015;1257;140332;-64
2023/12/08 12:24:29;;;;;;;69.80;37.50;;;;;;;-1.56;100.00;99677.88;437111;1254;126273;-77
2023/12/08 12:34:35;;;;;;;51.90;32.00;;;;;;;-1.63;100.00;99666.10;438463;1255;140799;-76
2023/12/08 12:44:40;;;;;;;;;;;;;;;-1.64;100.00;99656.34;438547;1256;141165;-77
2023/12/08 12:54:46;;;;;;;49.70;28.90;;;;;;;-1.68;100.00;99659.48;438221;1259;126637;-76
2023/12/08 13:04:53;;;;;;;48.90;28.80;;;;;;;-1.74;100.00;99668.83;437894;1257;151418;-76
2023/12/08 13:14:59;;;;;;;57.70;35.50;;;;;;;-1.81;100.00;99665.83;435632;1258;141203;-76
2023/12/08 13:25:11;;;;;;;47.30;28.40;;;;;;;-1.88;100.00;99670.54;433945;1258;140354;-76
2023/12/08 13:35:17;;;;;;;45.80;28.90;;;;;;;-2.01;100.00;99662.63;433180;1255;141194;-76
2023/12/08 13:45:25;;;;;;;46.80;29.60;;;;;;;-2.12;100.00;99657.92;433065;1257;139895;-76
2023/12/08 13:55:32;;;;;;;46.10;28.40;;;;;;;-2.23;100.00;99660.45;438691;1257;141786;-76
2023/12/08 14:05:36;;;;;;;;;;;;;;;-2.37;100.00;99656.81;438087;1255;140399;-76
2023/12/08 14:15:42;;;;;;;43.90;26.30;;;;;;;-2.55;100.00;99653.39;438649;1256;127386;-76
2023/12/08 14:25:49;;;;;;;35.60;24.30;;;;;;;-2.76;100.00;99649.80;438009;1255;140240;-72
2023/12/08 14:35:56;;;;;;;46.20;28.90;;;;;;;-2.95;100.00;99648.08;434785;1255;140204;-67
2023/12/08 14:46:04;;;;;;;37.40;24.10;;;;;;;-3.03;100.00;99668.69;432413;1258;140668;-79
2023/12/08 14:56:11;;;;;;;39.90;24.80;;;;;;;-3.21;100.00;99677.88;437407;1255;140207;-69
2023/12/08 15:06:17;;;;;;;34.40;25.10;;;;;;;-3.39;100.00;99683.63;433123;1257;141402;-67
2023/12/08 15:16:24;;;;;;;36.70;27.10;;;;;;;-3.53;100.00;99680.28;436140;1257;140616;-62
2023/12/08 15:26:30;;;;;;;35.70;26.10;;;;;;;-3.65;100.00;99679.82;433028;1255;140138;-62
2023/12/08 15:36:36;;;;;;;47.10;30.40;;;;;;;-3.72;100.00;99675.58;432809;1257;139988;-61
2023/12/08 15:46:42;;;;;;;41.00;29.10;;;;;;;-3.73;100.00;99673.70;433412;1257;140007;-62
2023/12/08 15:56:49;;;;;;;46.90;31.00;;;;;;;-3.73;100.00;99676.77;433939;1255;140171;-61
2023/12/08 16:06:56;;;;;;;46.30;30.80;;;;;;;-3.79;100.00;99671.33;433862;1255;140245;-61
2023/12/08 16:17:02;;;;;;;46.60;29.40;;;;;;;-3.89;100.00;99647.59;436482;1254;140734;-62
2023/12/08 16:27:12;;;;;;;46.60;32.60;;;;;;;-3.91;100.00;99645.20;433504;1259;140176;-61
2023/12/08 16:37:18;;;;;;;49.60;32.30;;;;;;;-3.91;100.00;99645.04;433020;1258;140939;-60
2023/12/08 16:47:25;;;;;;;49.40;34.10;;;;;;;-3.94;100.00;99648.96;433581;1255;141220;-60
2023/12/08 16:57:34;;;;;;;61.00;37.00;;;;;;;-3.95;100.00;99649.33;443361;1254;142310;-60
2023/12/08 17:07:40;;;;;;;49.10;33.40;;;;;;;-3.93;100.00;99651.38;433084;1256;140958;-61
2023/12/08 17:17:48;;;;;;;50.50;32.30;;;;;;;-4.01;100.00;99650.20;434079;1255;140081;-61
2023/12/08 17:27:55;;;;;;;55.80;37.70;;;;;;;-4.08;100.00;99651.59;433633;1257;140958;-60
2023/12/08 17:38:02;;;;;;;55.30;35.60;;;;;;;-4.16;100.00;99665.98;434382;1256;141020;-60
2023/12/08 17:48:08;;;;;;;50.80;31.00;;;;;;;-4.20;100.00;99681.88;432514;1257;141039;-60
2023/12/08 17:58:16;;;;;;;47.00;30.10;;;;;;;-4.29;100.00;99682.41;433422;1259;140204;-60
2023/12/08 18:08:23;;;;;;;51.10;32.60;;;;;;;-4.44;100.00;99682.45;432426;1258;141662;-60
2023/12/08 18:18:29;;;;;;;47.20;31.70;;;;;;;-4.47;100.00;99684.48;434287;1258;140437;-62
2023/12/08 18:28:36;;;;;;;47.20;28.80;;;;;;;-4.50;100.00;99686.38;433646;1255;140427;-61
2023/12/08 18:39:04;;;;;;;42.10;27.80;;;;;;;-4.66;100.00;99688.42;432673;1258;141857;-62
2023/12/08 18:49:11;;;;;;;59.80;34.60;;;;;;;-4.80;100.00;99681.42;437854;1254;140303;-62
2023/12/08 18:59:21;;;;;;;59.80;35.90;;;;;;;-4.85;100.00;99676.13;439886;1255;140901;-61
2023/12/08 19:09:28;;;;;;;52.90;32.60;;;;;;;-4.80;100.00;99671.17;440863;1256;140425;-61
2023/12/08 19:19:34;;;;;;;53.80;31.20;;;;;;;-4.82;100.00;99676.98;434747;1257;140962;-61
2023/12/08 19:29:41;;;;;;;44.00;30.00;;;;;;;-4.86;100.00;99667.42;432746;1258;140103;-62
2023/12/08 19:39:47;;;;;;;48.40;29.80;;;;;;;-4.88;100.00;99655.30;433199;1260;140016;-62
2023/12/08 19:49:57;;;;;;;50.40;33.50;;;;;;;-4.90;100.00;99644.89;433719;1260;140789;-61
2023/12/08 20:00:04;;;;;;;50.80;33.10;;;;;;;-4.88;100.00;99635.48;438400;1258;140138;-61
2023/12/08 20:10:12;;;;;;;52.30;34.00;;;;;;;-4.87;100.00;99644.72;434755;1255;141126;-61
2023/12/08 20:20:19;;;;;;;50.10;29.90;;;;;;;-4.83;100.00;99648.80;441570;1255;140352;-62
2023/12/08 20:30:25;;;;;;;45.30;28.30;;;;;;;-4.79;100.00;99650.69;437349;1255;140027;-60
2023/12/08 20:40:32;;;;;;;44.30;27.70;;;;;;;-4.77;100.00;99654.78;433578;1255;140897;-61
2023/12/08 20:50:38;;;;;;;47.90;28.40;;;;;;;-4.74;100.00;99649.48;435431;1255;140584;-61
2023/12/08 21:00:44;;;;;;;45.40;26.50;;;;;;;-4.71;100.00;99646.93;435113;1258;140988;-61
2023/12/08 21:10:51;;;;;;;51.00;30.70;;;;;;;-4.66;100.00;99642.83;433106;1255;141321;-61
2023/12/08 21:20:57;;;;;;;51.90;32.00;;;;;;;-4.59;100.00;99639.91;435389;1255;140801;-61
2023/12/08 21:31:04;;;;;;;51.60;31.90;;;;;;;-4.52;100.00;99645.20;432879;1260;140439;-62
2023/12/08 21:41:10;;;;;;;52.60;30.70;;;;;;;-4.48;100.00;99649.80;433778;1259;141465;-60
2023/12/08 21:51:17;;;;;;;51.30;27.40;;;;;;;-4.42;100.00;99654.41;439902;1257;140099;-60
2023/12/08 22:01:23;;;;;;;59.40;36.30;;;;;;;-4.36;100.00;99655.94;433681;1259;141824;-62
2023/12/08 22:11:29;;;;;;;64.80;33.60;;;;;;;-4.31;100.00;99660.88;432895;1259;140217;-62
2023/12/08 22:21:36;;;;;;;51.00;31.40;;;;;;;-4.30;100.00;99652.50;434383;1258;140310;-61
2023/12/08 22:31:43;;;;;;;54.60;33.50;;;;;;;-4.28;100.00;99648.89;435494;1258;140722;-61
2023/12/08 22:41:49;;;;;;;61.00;35.50;;;;;;;-4.28;100.00;99644.81;435447;1259;141554;-61
2023/12/08 22:51:56;;;;;;;58.70;34.80;;;;;;;-4.26;100.00;99638.47;436981;1255;140540;-61
2023/12/08 23:02:05;;;;;;;54.60;35.00;;;;;;;-4.25;100.00;99633.02;435268;1255;141068;-61
2023/12/08 23:12:11;;;;;;;60.80;33.20;;;;;;;-4.25;100.00;99635.05;434141;1255;141187;-61
2023/12/08 23:22:18;;;;;;;63.20;36.20;;;;;;;-4.23;100.00;99629.40;432833;1260;140296;-61
2023/12/08 23:32:24;;;;;;;56.20;34.60;;;;;;;-4.20;100.00;99635.90;433529;1259;140432;-61
2023/12/08 23:42:30;;;;;;;55.90;30.40;;;;;;;-4.19;100.00;99629.73;434067;1260;143067;-61
2023/12/08 23:52:37;;;;;;;60.40;33.00;;;;;;;-4.16;100.00;99614.85;433737;1260;140709;-61
